sensor_id;sensor_type;location;lat;lon;timestamp;P1;durP1;ratioP1;P2;durP2;ratioP2
46006;SDS011;31738;50.188;8.524;2024-02-21T00:00:07;16.65;;;4.90;;
46006;SDS011;31738;50.188;8.524;2024-02-21T00:02:33;14.45;;;4.72;;
46006;SDS011;31738;50.188;8.524;2024-02-21T00:05:02;11.38;;;4.70;;
46006;SDS011;31738;50.188;8.524;2024-02-21T00:07:27;15.63;;;4.80;;
46006;SDS011;31738;50.188;8.524;2024-02-21T00:10:00;19.40;;;4.40;;
46006;SDS011;31738;50.188;8.524;2024-02-21T00:12:26;20.10;;;5.40;;
46006;SDS011;31738;50.188;8.524;2024-02-21T00:14:54;13.68;;;4.78;;
46006;SDS011;31738;50.188;8.524;2024-02-21T00:17:20;13.20;;;4.68;;
46006;SDS011;31738;50.188;8.524;2024-02-21T00:19:45;18.77;;;5.07;;
46006;SDS011;31738;50.188;8.524;2024-02-21T00:22:17;17.88;;;5.32;;
46006;SDS011;31738;50.188;8.524;2024-02-21T00:24:45;19.95;;;5.25;;
46006;SDS011;31738;50.188;8.524;2024-02-21T00:27:10;15.13;;;5.13;;
46006;SDS011;31738;50.188;8.524;2024-02-21T00:29:38;19.33;;;5.32;;
46006;SDS011;31738;50.188;8.524;2024-02-21T00:32:06;12.52;;;4.57;;
46006;SDS011;31738;50.188;8.524;2024-02-21T00:34:31;20.73;;;5.00;;
46006;SDS011;31738;50.188;8.524;2024-02-21T00:37:01;18.60;;;5.18;;
46006;SDS011;31738;50.188;8.524;2024-02-21T00:39:28;17.48;;;5.05;;
46006;SDS011;31738;50.188;8.524;2024-02-21T00:41:53;15.50;;;5.35;;
46006;SDS011;31738;50.188;8.524;2024-02-21T00:44:19;19.25;;;4.50;;
46006;SDS011;31738;50.188;8.524;2024-02-21T00:46:44;19.38;;;5.85;;
46006;SDS011;31738;50.188;8.524;2024-02-21T00:49:11;14.98;;;5.53;;
46006;SDS011;31738;50.188;8.524;2024-02-21T00:51:37;15.70;;;5.40;;
46006;SDS011;31738;50.188;8.524;2024-02-21T00:54:02;14.40;;;5.05;;
46006;SDS011;31738;50.188;8.524;2024-02-21T00:56:27;18.20;;;5.40;;
46006;SDS011;31738;50.188;8.524;2024-02-21T00:58:53;18.83;;;5.43;;
46006;SDS011;31738;50.188;8.524;2024-02-21T01:01:22;16.88;;;5.72;;
46006;SDS011;31738;50.188;8.524;2024-02-21T01:03:49;16.75;;;5.47;;
46006;SDS011;31738;50.188;8.524;2024-02-21T01:06:15;14.95;;;5.65;;
46006;SDS011;31738;50.188;8.524;2024-02-21T01:08:40;15.65;;;5.63;;
46006;SDS011;31738;50.188;8.524;2024-02-21T01:11:06;20.73;;;5.50;;
46006;SDS011;31738;50.188;8.524;2024-02-21T01:13:31;16.15;;;5.30;;
46006;SDS011;31738;50.188;8.524;2024-02-21T01:15:56;16.63;;;5.10;;
46006;SDS011;31738;50.188;8.524;2024-02-21T01:18:22;14.35;;;5.03;;
46006;SDS011;31738;50.188;8.524;2024-02-21T01:20:47;16.48;;;5.38;;
46006;SDS011;31738;50.188;8.524;2024-02-21T01:23:13;15.30;;;5.50;;
46006;SDS011;31738;50.188;8.524;2024-02-21T01:25:38;18.58;;;4.60;;
46006;SDS011;31738;50.188;8.524;2024-02-21T01:28:03;17.63;;;5.53;;
46006;SDS011;31738;50.188;8.524;2024-02-21T01:30:29;20.73;;;5.07;;
46006;SDS011;31738;50.188;8.524;2024-02-21T01:32:54;16.45;;;5.22;;
46006;SDS011;31738;50.188;8.524;2024-02-21T01:35:20;16.95;;;5.15;;
46006;SDS011;31738;50.188;8.524;2024-02-21T01:37:45;17.55;;;5.22;;
46006;SDS011;31738;50.188;8.524;2024-02-21T01:40:11;19.95;;;6.05;;
46006;SDS011;31738;50.188;8.524;2024-02-21T01:42:40;22.70;;;5.72;;
46006;SDS011;31738;50.188;8.524;2024-02-21T01:45:08;13.00;;;5.25;;
46006;SDS011;31738;50.188;8.524;2024-02-21T01:47:34;18.00;;;5.60;;
46006;SDS011;31738;50.188;8.524;2024-02-21T01:50:01;17.67;;;5.07;;
46006;SDS011;31738;50.188;8.524;2024-02-21T01:52:28;22.85;;;5.50;;
46006;SDS011;31738;50.188;8.524;2024-02-21T01:54:54;18.55;;;5.20;;
46006;SDS011;31738;50.188;8.524;2024-02-21T01:57:20;14.73;;;4.78;;
46006;SDS011;31738;50.188;8.524;2024-02-21T01:59:45;20.70;;;6.50;;
46006;SDS011;31738;50.188;8.524;2024-02-21T02:02:11;19.25;;;6.00;;
46006;SDS011;31738;50.188;8.524;2024-02-21T02:04:37;21.60;;;6.40;;
46006;SDS011;31738;50.188;8.524;2024-02-21T02:07:03;18.60;;;6.05;;
46006;SDS011;31738;50.188;8.524;2024-02-21T02:09:31;17.55;;;5.00;;
46006;SDS011;31738;50.188;8.524;2024-02-21T02:11:57;20.60;;;5.22;;
46006;SDS011;31738;50.188;8.524;2024-02-21T02:16:50;20.40;;;6.25;;
46006;SDS011;31738;50.188;8.524;2024-02-21T02:19:15;14.98;;;5.30;;
46006;SDS011;31738;50.188;8.524;2024-02-21T02:21:42;23.90;;;6.25;;
46006;SDS011;31738;50.188;8.524;2024-02-21T02:24:11;21.35;;;6.13;;
46006;SDS011;31738;50.188;8.524;2024-02-21T02:26:39;15.80;;;5.88;;
46006;SDS011;31738;50.188;8.524;2024-02-21T02:29:04;17.83;;;6.13;;
46006;SDS011;31738;50.188;8.524;2024-02-21T02:31:30;19.92;;;5.65;;
46006;SDS011;31738;50.188;8.524;2024-02-21T02:33:55;20.63;;;5.63;;
46006;SDS011;31738;50.188;8.524;2024-02-21T02:36:21;22.02;;;6.30;;
46006;SDS011;31738;50.188;8.524;2024-02-21T02:38:46;26.73;;;5.97;;
46006;SDS011;31738;50.188;8.524;2024-02-21T02:41:12;19.67;;;5.88;;
46006;SDS011;31738;50.188;8.524;2024-02-21T02:43:37;17.48;;;5.88;;
46006;SDS011;31738;50.188;8.524;2024-02-21T02:46:03;14.27;;;6.28;;
46006;SDS011;31738;50.188;8.524;2024-02-21T02:48:29;16.80;;;5.85;;
46006;SDS011;31738;50.188;8.524;2024-02-21T02:50:54;15.93;;;5.85;;
46006;SDS011;31738;50.188;8.524;2024-02-21T02:53:20;20.00;;;6.15;;
46006;SDS011;31738;50.188;8.524;2024-02-21T02:55:45;22.45;;;6.20;;
46006;SDS011;31738;50.188;8.524;2024-02-21T02:58:11;13.98;;;5.70;;
46006;SDS011;31738;50.188;8.524;2024-02-21T03:00:37;16.48;;;6.40;;
46006;SDS011;31738;50.188;8.524;2024-02-21T03:03:03;14.35;;;5.93;;
46006;SDS011;31738;50.188;8.524;2024-02-21T03:05:29;17.90;;;5.72;;
46006;SDS011;31738;50.188;8.524;2024-02-21T03:07:55;16.83;;;5.45;;
46006;SDS011;31738;50.188;8.524;2024-02-21T03:10:20;18.90;;;5.38;;
46006;SDS011;31738;50.188;8.524;2024-02-21T03:12:46;17.13;;;5.85;;
46006;SDS011;31738;50.188;8.524;2024-02-21T03:15:12;19.40;;;6.25;;
46006;SDS011;31738;50.188;8.524;2024-02-21T03:17:38;17.40;;;5.47;;
46006;SDS011;31738;50.188;8.524;2024-02-21T03:20:04;22.20;;;6.00;;
46006;SDS011;31738;50.188;8.524;2024-02-21T03:22:31;19.63;;;5.93;;
46006;SDS011;31738;50.188;8.524;2024-02-21T03:24:57;17.05;;;5.80;;
46006;SDS011;31738;50.188;8.524;2024-02-21T03:27:23;18.67;;;5.50;;
46006;SDS011;31738;50.188;8.524;2024-02-21T03:29:48;20.33;;;6.03;;
46006;SDS011;31738;50.188;8.524;2024-02-21T03:32:14;22.08;;;6.38;;
46006;SDS011;31738;50.188;8.524;2024-02-21T03:34:39;16.70;;;6.25;;
46006;SDS011;31738;50.188;8.524;2024-02-21T03:37:05;24.08;;;6.20;;
46006;SDS011;31738;50.188;8.524;2024-02-21T03:39:33;14.65;;;5.95;;
46006;SDS011;31738;50.188;8.524;2024-02-21T03:41:59;17.13;;;5.88;;
46006;SDS011;31738;50.188;8.524;2024-02-21T03:44:32;27.88;;;5.68;;
46006;SDS011;31738;50.188;8.524;2024-02-21T03:46:58;19.35;;;5.28;;
46006;SDS011;31738;50.188;8.524;2024-02-21T03:49:25;16.80;;;5.30;;
46006;SDS011;31738;50.188;8.524;2024-02-21T03:51:50;23.63;;;6.28;;
46006;SDS011;31738;50.188;8.524;2024-02-21T03:54:16;19.23;;;5.60;;
46006;SDS011;31738;50.188;8.524;2024-02-21T03:56:41;20.10;;;5.55;;
46006;SDS011;31738;50.188;8.524;2024-02-21T03:59:07;20.75;;;6.30;;
46006;SDS011;31738;50.188;8.524;2024-02-21T04:01:33;16.75;;;6.25;;
46006;SDS011;31738;50.188;8.524;2024-02-21T04:03:59;18.38;;;6.25;;
46006;SDS011;31738;50.188;8.524;2024-02-21T04:06:25;18.33;;;5.68;;
46006;SDS011;31738;50.188;8.524;2024-02-21T04:08:50;15.32;;;5.95;;
46006;SDS011;31738;50.188;8.524;2024-02-21T04:11:16;24.30;;;6.85;;
46006;SDS011;31738;50.188;8.524;2024-02-21T04:13:42;24.63;;;6.63;;
46006;SDS011;31738;50.188;8.524;2024-02-21T04:16:08;18.85;;;6.00;;
46006;SDS011;31738;50.188;8.524;2024-02-21T04:18:33;18.45;;;6.57;;
46006;SDS011;31738;50.188;8.524;2024-02-21T04:20:59;20.38;;;5.90;;
46006;SDS011;31738;50.188;8.524;2024-02-21T04:23:24;18.73;;;5.93;;
46006;SDS011;31738;50.188;8.524;2024-02-21T04:25:50;21.52;;;5.45;;
46006;SDS011;31738;50.188;8.524;2024-02-21T04:28:15;16.02;;;5.07;;
46006;SDS011;31738;50.188;8.524;2024-02-21T04:30:40;18.95;;;6.20;;
46006;SDS011;31738;50.188;8.524;2024-02-21T04:33:06;17.83;;;5.45;;
46006;SDS011;31738;50.188;8.524;2024-02-21T04:35:31;16.10;;;5.10;;
46006;SDS011;31738;50.188;8.524;2024-02-21T04:37:57;17.73;;;6.00;;
46006;SDS011;31738;50.188;8.524;2024-02-21T04:40:22;21.85;;;5.70;;
46006;SDS011;31738;50.188;8.524;2024-02-21T04:42:48;12.75;;;5.60;;
46006;SDS011;31738;50.188;8.524;2024-02-21T04:45:13;16.40;;;5.20;;
46006;SDS011;31738;50.188;8.524;2024-02-21T04:47:39;16.30;;;5.70;;
46006;SDS011;31738;50.188;8.524;2024-02-21T04:50:04;14.90;;;5.65;;
46006;SDS011;31738;50.188;8.524;2024-02-21T04:52:31;16.67;;;5.63;;
46006;SDS011;31738;50.188;8.524;2024-02-21T04:54:56;14.52;;;5.43;;
46006;SDS011;31738;50.188;8.524;2024-02-21T04:57:22;19.75;;;6.00;;
46006;SDS011;31738;50.188;8.524;2024-02-21T04:59:47;19.15;;;5.22;;
46006;SDS011;31738;50.188;8.524;2024-02-21T05:02:13;20.35;;;5.80;;
46006;SDS011;31738;50.188;8.524;2024-02-21T05:04:39;18.50;;;5.70;;
46006;SDS011;31738;50.188;8.524;2024-02-21T05:07:05;20.48;;;5.68;;
46006;SDS011;31738;50.188;8.524;2024-02-21T05:09:31;17.77;;;6.18;;
46006;SDS011;31738;50.188;8.524;2024-02-21T05:11:56;13.77;;;5.57;;
46006;SDS011;31738;50.188;8.524;2024-02-21T05:14:24;13.23;;;5.38;;
46006;SDS011;31738;50.188;8.524;2024-02-21T05:16:50;23.52;;;6.32;;
46006;SDS011;31738;50.188;8.524;2024-02-21T05:19:15;17.20;;;6.03;;
46006;SDS011;31738;50.188;8.524;2024-02-21T05:21:40;22.67;;;6.43;;
46006;SDS011;31738;50.188;8.524;2024-02-21T05:24:06;20.65;;;6.32;;
46006;SDS011;31738;50.188;8.524;2024-02-21T05:26:31;21.10;;;6.30;;
46006;SDS011;31738;50.188;8.524;2024-02-21T05:28:57;16.67;;;5.53;;
46006;SDS011;31738;50.188;8.524;2024-02-21T05:31:24;20.25;;;5.90;;
46006;SDS011;31738;50.188;8.524;2024-02-21T05:33:50;17.25;;;6.00;;
46006;SDS011;31738;50.188;8.524;2024-02-21T05:36:15;19.92;;;6.35;;
46006;SDS011;31738;50.188;8.524;2024-02-21T05:38:41;24.40;;;6.53;;
46006;SDS011;31738;50.188;8.524;2024-02-21T05:41:06;25.15;;;6.40;;
46006;SDS011;31738;50.188;8.524;2024-02-21T05:43:32;16.58;;;5.78;;
46006;SDS011;31738;50.188;8.524;2024-02-21T05:45:57;19.33;;;6.68;;
46006;SDS011;31738;50.188;8.524;2024-02-21T05:48:23;19.05;;;6.45;;
46006;SDS011;31738;50.188;8.524;2024-02-21T05:50:49;19.38;;;6.78;;
46006;SDS011;31738;50.188;8.524;2024-02-21T05:53:15;21.23;;;6.57;;
46006;SDS011;31738;50.188;8.524;2024-02-21T05:55:40;15.98;;;6.53;;
46006;SDS011;31738;50.188;8.524;2024-02-21T05:58:06;20.83;;;6.45;;
46006;SDS011;31738;50.188;8.524;2024-02-21T06:00:32;16.90;;;6.22;;
46006;SDS011;31738;50.188;8.524;2024-02-21T06:02:58;21.20;;;6.47;;
46006;SDS011;31738;50.188;8.524;2024-02-21T06:05:24;27.77;;;6.75;;
46006;SDS011;31738;50.188;8.524;2024-02-21T06:07:49;24.67;;;6.28;;
46006;SDS011;31738;50.188;8.524;2024-02-21T06:10:15;17.30;;;5.40;;
46006;SDS011;31738;50.188;8.524;2024-02-21T06:12:41;12.18;;;5.85;;
46006;SDS011;31738;50.188;8.524;2024-02-21T06:15:06;16.20;;;6.20;;
46006;SDS011;31738;50.188;8.524;2024-02-21T06:17:32;23.58;;;6.40;;
46006;SDS011;31738;50.188;8.524;2024-02-21T06:19:58;16.95;;;6.65;;
46006;SDS011;31738;50.188;8.524;2024-02-21T06:22:23;21.30;;;6.10;;
46006;SDS011;31738;50.188;8.524;2024-02-21T06:24:49;18.60;;;6.38;;
46006;SDS011;31738;50.188;8.524;2024-02-21T06:27:15;18.05;;;5.22;;
46006;SDS011;31738;50.188;8.524;2024-02-21T06:29:41;19.15;;;6.85;;
46006;SDS011;31738;50.188;8.524;2024-02-21T06:32:07;23.23;;;6.28;;
46006;SDS011;31738;50.188;8.524;2024-02-21T06:34:32;22.50;;;6.47;;
46006;SDS011;31738;50.188;8.524;2024-02-21T06:36:58;19.02;;;6.07;;
46006;SDS011;31738;50.188;8.524;2024-02-21T06:39:23;13.48;;;5.90;;
46006;SDS011;31738;50.188;8.524;2024-02-21T06:41:49;15.35;;;6.60;;
46006;SDS011;31738;50.188;8.524;2024-02-21T06:44:18;20.45;;;6.82;;
46006;SDS011;31738;50.188;8.524;2024-02-21T06:46:44;15.32;;;6.40;;
46006;SDS011;31738;50.188;8.524;2024-02-21T06:49:09;21.40;;;6.28;;
46006;SDS011;31738;50.188;8.524;2024-02-21T06:51:41;15.77;;;6.13;;
46006;SDS011;31738;50.188;8.524;2024-02-21T06:54:10;19.40;;;6.82;;
46006;SDS011;31738;50.188;8.524;2024-02-21T06:56:36;16.73;;;6.63;;
46006;SDS011;31738;50.188;8.524;2024-02-21T06:59:02;20.48;;;7.15;;
46006;SDS011;31738;50.188;8.524;2024-02-21T07:01:31;17.30;;;6.45;;
46006;SDS011;31738;50.188;8.524;2024-02-21T07:03:56;28.73;;;7.32;;
46006;SDS011;31738;50.188;8.524;2024-02-21T07:06:22;23.30;;;7.35;;
46006;SDS011;31738;50.188;8.524;2024-02-21T07:08:48;15.75;;;6.90;;
46006;SDS011;31738;50.188;8.524;2024-02-21T07:11:14;20.50;;;6.95;;
46006;SDS011;31738;50.188;8.524;2024-02-21T07:13:40;20.88;;;7.57;;
46006;SDS011;31738;50.188;8.524;2024-02-21T07:16:06;19.90;;;7.20;;
46006;SDS011;31738;50.188;8.524;2024-02-21T07:18:32;16.98;;;6.82;;
46006;SDS011;31738;50.188;8.524;2024-02-21T07:20:57;18.38;;;7.07;;
46006;SDS011;31738;50.188;8.524;2024-02-21T07:23:23;24.80;;;6.97;;
46006;SDS011;31738;50.188;8.524;2024-02-21T07:25:49;18.27;;;7.07;;
46006;SDS011;31738;50.188;8.524;2024-02-21T07:28:14;21.27;;;6.65;;
46006;SDS011;31738;50.188;8.524;2024-02-21T07:30:41;16.55;;;6.47;;
46006;SDS011;31738;50.188;8.524;2024-02-21T07:33:07;21.75;;;6.80;;
46006;SDS011;31738;50.188;8.524;2024-02-21T07:35:32;19.50;;;8.00;;
46006;SDS011;31738;50.188;8.524;2024-02-21T07:37:58;19.02;;;7.57;;
46006;SDS011;31738;50.188;8.524;2024-02-21T07:40:26;26.70;;;8.57;;
46006;SDS011;31738;50.188;8.524;2024-02-21T07:42:51;24.30;;;8.65;;
46006;SDS011;31738;50.188;8.524;2024-02-21T07:45:17;17.63;;;8.32;;
46006;SDS011;31738;50.188;8.524;2024-02-21T07:47:43;23.80;;;8.18;;
46006;SDS011;31738;50.188;8.524;2024-02-21T07:50:09;23.95;;;9.32;;
46006;SDS011;31738;50.188;8.524;2024-02-21T07:52:34;25.70;;;9.55;;
46006;SDS011;31738;50.188;8.524;2024-02-21T07:55:00;22.45;;;8.50;;
46006;SDS011;31738;50.188;8.524;2024-02-21T07:57:25;25.55;;;8.55;;
46006;SDS011;31738;50.188;8.524;2024-02-21T07:59:51;23.48;;;9.07;;
46006;SDS011;31738;50.188;8.524;2024-02-21T08:02:16;21.20;;;8.70;;
46006;SDS011;31738;50.188;8.524;2024-02-21T08:04:42;19.88;;;8.93;;
46006;SDS011;31738;50.188;8.524;2024-02-21T08:07:08;21.92;;;8.82;;
46006;SDS011;31738;50.188;8.524;2024-02-21T08:09:34;17.38;;;8.38;;
46006;SDS011;31738;50.188;8.524;2024-02-21T08:12:00;22.73;;;9.05;;
46006;SDS011;31738;50.188;8.524;2024-02-21T08:14:25;24.05;;;8.80;;
46006;SDS011;31738;50.188;8.524;2024-02-21T08:16:51;19.42;;;8.90;;
46006;SDS011;31738;50.188;8.524;2024-02-21T08:19:18;22.63;;;8.88;;
46006;SDS011;31738;50.188;8.524;2024-02-21T08:21:44;20.83;;;8.60;;
46006;SDS011;31738;50.188;8.524;2024-02-21T08:24:12;26.17;;;9.07;;
46006;SDS011;31738;50.188;8.524;2024-02-21T08:26:40;23.55;;;9.57;;
46006;SDS011;31738;50.188;8.524;2024-02-21T08:29:06;26.02;;;8.73;;
46006;SDS011;31738;50.188;8.524;2024-02-21T08:31:31;16.33;;;8.60;;
46006;SDS011;31738;50.188;8.524;2024-02-21T08:33:57;23.42;;;9.27;;
46006;SDS011;31738;50.188;8.524;2024-02-21T08:36:30;19.73;;;8.48;;
46006;SDS011;31738;50.188;8.524;2024-02-21T08:38:56;21.48;;;8.15;;
46006;SDS011;31738;50.188;8.524;2024-02-21T08:41:23;22.65;;;8.05;;
46006;SDS011;31738;50.188;8.524;2024-02-21T08:43:52;20.58;;;7.88;;
46006;SDS011;31738;50.188;8.524;2024-02-21T08:46:19;21.17;;;7.47;;
46006;SDS011;31738;50.188;8.524;2024-02-21T08:48:46;25.50;;;8.32;;
46006;SDS011;31738;50.188;8.524;2024-02-21T08:51:14;21.85;;;7.25;;
46006;SDS011;31738;50.188;8.524;2024-02-21T08:53:40;24.70;;;6.75;;
46006;SDS011;31738;50.188;8.524;2024-02-21T08:56:05;16.52;;;7.38;;
46006;SDS011;31738;50.188;8.524;2024-02-21T08:58:32;20.63;;;6.35;;
46006;SDS011;31738;50.188;8.524;2024-02-21T09:00:58;18.45;;;7.65;;
46006;SDS011;31738;50.188;8.524;2024-02-21T09:03:24;16.17;;;6.43;;
46006;SDS011;31738;50.188;8.524;2024-02-21T09:05:50;17.15;;;6.47;;
46006;SDS011;31738;50.188;8.524;2024-02-21T09:08:15;22.52;;;6.88;;
46006;SDS011;31738;50.188;8.524;2024-02-21T09:10:42;14.05;;;6.55;;
46006;SDS011;31738;50.188;8.524;2024-02-21T09:13:07;17.55;;;6.45;;
46006;SDS011;31738;50.188;8.524;2024-02-21T09:15:33;19.90;;;7.18;;
46006;SDS011;31738;50.188;8.524;2024-02-21T09:17:59;20.67;;;8.07;;
46006;SDS011;31738;50.188;8.524;2024-02-21T09:20:25;19.23;;;7.50;;
46006;SDS011;31738;50.188;8.524;2024-02-21T09:22:50;23.50;;;8.60;;
46006;SDS011;31738;50.188;8.524;2024-02-21T09:25:17;23.25;;;8.27;;
46006;SDS011;31738;50.188;8.524;2024-02-21T09:27:43;21.40;;;8.40;;
46006;SDS011;31738;50.188;8.524;2024-02-21T09:30:10;22.95;;;8.90;;
46006;SDS011;31738;50.188;8.524;2024-02-21T09:32:35;23.38;;;8.68;;
46006;SDS011;31738;50.188;8.524;2024-02-21T09:35:01;25.77;;;9.60;;
46006;SDS011;31738;50.188;8.524;2024-02-21T09:37:27;23.45;;;9.68;;
46006;SDS011;31738;50.188;8.524;2024-02-21T09:39:52;23.02;;;9.90;;
46006;SDS011;31738;50.188;8.524;2024-02-21T09:42:19;26.60;;;9.93;;
46006;SDS011;31738;50.188;8.524;2024-02-21T09:44:46;22.70;;;10.52;;
46006;SDS011;31738;50.188;8.524;2024-02-21T09:49:53;29.85;;;10.93;;
46006;SDS011;31738;50.188;8.524;2024-02-21T09:52:19;24.20;;;10.02;;
46006;SDS011;31738;50.188;8.524;2024-02-21T09:54:46;25.80;;;9.90;;
46006;SDS011;31738;50.188;8.524;2024-02-21T09:57:14;26.77;;;10.02;;
46006;SDS011;31738;50.188;8.524;2024-02-21T09:59:40;21.52;;;9.18;;
46006;SDS011;31738;50.188;8.524;2024-02-21T10:02:08;19.55;;;8.95;;
46006;SDS011;31738;50.188;8.524;2024-02-21T10:04:36;18.98;;;7.88;;
46006;SDS011;31738;50.188;8.524;2024-02-21T10:07:02;16.10;;;7.47;;
46006;SDS011;31738;50.188;8.524;2024-02-21T10:09:29;15.40;;;6.95;;
46006;SDS011;31738;50.188;8.524;2024-02-21T10:12:11;19.90;;;7.70;;
46006;SDS011;31738;50.188;8.524;2024-02-21T10:14:43;18.55;;;7.32;;
46006;SDS011;31738;50.188;8.524;2024-02-21T10:17:32;17.45;;;7.45;;
46006;SDS011;31738;50.188;8.524;2024-02-21T10:20:19;14.52;;;6.78;;
46006;SDS011;31738;50.188;8.524;2024-02-21T10:23:08;18.10;;;7.15;;
46006;SDS011;31738;50.188;8.524;2024-02-21T10:25:37;18.52;;;6.95;;
46006;SDS011;31738;50.188;8.524;2024-02-21T10:28:23;22.85;;;7.68;;
46006;SDS011;31738;50.188;8.524;2024-02-21T10:30:52;17.42;;;6.78;;
46006;SDS011;31738;50.188;8.524;2024-02-21T10:33:27;20.38;;;6.97;;
46006;SDS011;31738;50.188;8.524;2024-02-21T10:36:08;14.75;;;6.82;;
46006;SDS011;31738;50.188;8.524;2024-02-21T10:39:10;18.80;;;6.68;;
46006;SDS011;31738;50.188;8.524;2024-02-21T10:42:36;15.95;;;5.93;;
46006;SDS011;31738;50.188;8.524;2024-02-21T10:45:07;16.27;;;6.47;;
46006;SDS011;31738;50.188;8.524;2024-02-21T10:47:39;16.42;;;6.35;;
46006;SDS011;31738;50.188;8.524;2024-02-21T10:50:09;15.45;;;6.13;;
46006;SDS011;31738;50.188;8.524;2024-02-21T10:55:41;17.50;;;6.07;;
46006;SDS011;31738;50.188;8.524;2024-02-21T10:58:24;14.98;;;5.63;;
46006;SDS011;31738;50.188;8.524;2024-02-21T11:01:21;16.02;;;5.63;;
46006;SDS011;31738;50.188;8.524;2024-02-21T11:04:03;12.35;;;5.15;;
46006;SDS011;31738;50.188;8.524;2024-02-21T11:06:37;16.05;;;5.13;;
46006;SDS011;31738;50.188;8.524;2024-02-21T11:09:33;11.43;;;4.60;;
46006;SDS011;31738;50.188;8.524;2024-02-21T11:12:05;12.52;;;4.25;;
46006;SDS011;31738;50.188;8.524;2024-02-21T11:14:54;14.60;;;4.05;;
46006;SDS011;31738;50.188;8.524;2024-02-21T11:17:37;12.85;;;4.45;;
46006;SDS011;31738;50.188;8.524;2024-02-21T11:20:34;12.00;;;4.13;;
46006;SDS011;31738;50.188;8.524;2024-02-21T11:23:03;9.63;;;3.88;;
46006;SDS011;31738;50.188;8.524;2024-02-21T11:25:40;8.88;;;4.05;;
46006;SDS011;31738;50.188;8.524;2024-02-21T11:31:44;9.05;;;3.85;;
46006;SDS011;31738;50.188;8.524;2024-02-21T11:34:29;11.73;;;4.20;;
46006;SDS011;31738;50.188;8.524;2024-02-21T11:36:58;13.15;;;4.25;;
46006;SDS011;31738;50.188;8.524;2024-02-21T11:39:29;9.57;;;4.28;;
46006;SDS011;31738;50.188;8.524;2024-02-21T11:42:04;12.30;;;4.28;;
46006;SDS011;31738;50.188;8.524;2024-02-21T11:44:39;11.15;;;3.72;;
46006;SDS011;31738;50.188;8.524;2024-02-21T11:47:10;15.10;;;4.40;;
46006;SDS011;31738;50.188;8.524;2024-02-21T11:49:53;9.40;;;3.38;;
46006;SDS011;31738;50.188;8.524;2024-02-21T11:52:31;8.52;;;3.50;;
46006;SDS011;31738;50.188;8.524;2024-02-21T11:55:02;11.77;;;3.53;;
46006;SDS011;31738;50.188;8.524;2024-02-21T11:57:38;10.05;;;3.88;;
46006;SDS011;31738;50.188;8.524;2024-02-21T12:00:17;7.65;;;3.13;;
46006;SDS011;31738;50.188;8.524;2024-02-21T12:02:46;11.48;;;3.70;;
46006;SDS011;31738;50.188;8.524;2024-02-21T12:05:16;8.30;;;3.60;;
46006;SDS011;31738;50.188;8.524;2024-02-21T12:07:43;8.38;;;3.30;;
46006;SDS011;31738;50.188;8.524;2024-02-21T12:10:16;8.00;;;3.47;;
46006;SDS011;31738;50.188;8.524;2024-02-21T12:12:48;10.70;;;3.50;;
46006;SDS011;31738;50.188;8.524;2024-02-21T12:15:18;9.18;;;2.90;;
46006;SDS011;31738;50.188;8.524;2024-02-21T12:17:53;10.43;;;3.30;;
46006;SDS011;31738;50.188;8.524;2024-02-21T12:20:36;9.20;;;3.60;;
46006;SDS011;31738;50.188;8.524;2024-02-21T12:23:01;11.25;;;3.78;;
46006;SDS011;31738;50.188;8.524;2024-02-21T12:25:34;12.52;;;3.72;;
46006;SDS011;31738;50.188;8.524;2024-02-21T12:28:28;10.95;;;3.80;;
46006;SDS011;31738;50.188;8.524;2024-02-21T12:31:08;16.35;;;4.25;;
46006;SDS011;31738;50.188;8.524;2024-02-21T12:33:44;12.20;;;2.70;;
46006;SDS011;31738;50.188;8.524;2024-02-21T12:36:09;12.43;;;3.08;;
46006;SDS011;31738;50.188;8.524;2024-02-21T12:38:35;9.20;;;2.85;;
46006;SDS011;31738;50.188;8.524;2024-02-21T12:41:01;9.68;;;2.75;;
46006;SDS011;31738;50.188;8.524;2024-02-21T12:43:27;10.73;;;2.95;;
46006;SDS011;31738;50.188;8.524;2024-02-21T12:45:57;11.43;;;3.25;;
46006;SDS011;31738;50.188;8.524;2024-02-21T12:48:29;13.23;;;3.10;;
46006;SDS011;31738;50.188;8.524;2024-02-21T12:54:04;7.78;;;3.03;;
46006;SDS011;31738;50.188;8.524;2024-02-21T12:56:30;8.43;;;3.33;;
46006;SDS011;31738;50.188;8.524;2024-02-21T12:59:13;12.38;;;2.95;;
46006;SDS011;31738;50.188;8.524;2024-02-21T13:01:39;11.75;;;3.03;;
46006;SDS011;31738;50.188;8.524;2024-02-21T13:04:41;10.18;;;3.05;;
46006;SDS011;31738;50.188;8.524;2024-02-21T13:07:09;9.23;;;2.97;;
46006;SDS011;31738;50.188;8.524;2024-02-21T13:09:39;12.27;;;2.85;;
46006;SDS011;31738;50.188;8.524;2024-02-21T13:12:05;10.05;;;3.13;;
46006;SDS011;31738;50.188;8.524;2024-02-21T13:17:53;9.18;;;3.42;;
46006;SDS011;31738;50.188;8.524;2024-02-21T13:20:19;8.98;;;2.90;;
46006;SDS011;31738;50.188;8.524;2024-02-21T13:22:56;9.10;;;3.28;;
46006;SDS011;31738;50.188;8.524;2024-02-21T13:25:34;7.95;;;3.53;;
46006;SDS011;31738;50.188;8.524;2024-02-21T13:28:00;8.57;;;3.10;;
46006;SDS011;31738;50.188;8.524;2024-02-21T13:30:35;8.73;;;3.80;;
46006;SDS011;31738;50.188;8.524;2024-02-21T13:33:06;11.70;;;3.75;;
46006;SDS011;31738;50.188;8.524;2024-02-21T13:35:37;15.07;;;3.85;;
46006;SDS011;31738;50.188;8.524;2024-02-21T13:38:04;9.05;;;3.35;;
46006;SDS011;31738;50.188;8.524;2024-02-21T13:41:15;8.70;;;3.10;;
46006;SDS011;31738;50.188;8.524;2024-02-21T13:50:06;13.80;;;3.45;;
46006;SDS011;31738;50.188;8.524;2024-02-21T13:53:02;7.80;;;3.10;;
46006;SDS011;31738;50.188;8.524;2024-02-21T13:55:49;8.57;;;3.30;;
46006;SDS011;31738;50.188;8.524;2024-02-21T13:58:18;11.10;;;3.47;;
46006;SDS011;31738;50.188;8.524;2024-02-21T14:00:49;13.20;;;3.15;;
46006;SDS011;31738;50.188;8.524;2024-02-21T14:03:18;7.13;;;3.00;;
46006;SDS011;31738;50.188;8.524;2024-02-21T14:05:53;18.20;;;3.55;;
46006;SDS011;31738;50.188;8.524;2024-02-21T14:08:23;7.50;;;3.30;;
46006;SDS011;31738;50.188;8.524;2024-02-21T14:11:16;9.13;;;3.00;;
46006;SDS011;31738;50.188;8.524;2024-02-21T14:13:56;9.90;;;3.22;;
46006;SDS011;31738;50.188;8.524;2024-02-21T14:16:31;6.63;;;2.72;;
46006;SDS011;31738;50.188;8.524;2024-02-21T14:19:09;14.70;;;3.17;;
46006;SDS011;31738;50.188;8.524;2024-02-21T14:21:42;10.32;;;2.75;;
46006;SDS011;31738;50.188;8.524;2024-02-21T14:24:08;12.85;;;2.90;;
46006;SDS011;31738;50.188;8.524;2024-02-21T14:26:44;8.57;;;3.38;;
46006;SDS011;31738;50.188;8.524;2024-02-21T14:30:04;12.68;;;3.47;;
46006;SDS011;31738;50.188;8.524;2024-02-21T14:32:40;11.93;;;2.50;;
46006;SDS011;31738;50.188;8.524;2024-02-21T14:35:12;8.85;;;2.67;;
46006;SDS011;31738;50.188;8.524;2024-02-21T14:37:40;7.60;;;2.53;;
46006;SDS011;31738;50.188;8.524;2024-02-21T14:40:18;11.93;;;2.67;;
46006;SDS011;31738;50.188;8.524;2024-02-21T14:43:47;6.35;;;2.58;;
46006;SDS011;31738;50.188;8.524;2024-02-21T14:46:29;9.57;;;2.40;;
46006;SDS011;31738;50.188;8.524;2024-02-21T14:51:52;11.15;;;2.92;;
46006;SDS011;31738;50.188;8.524;2024-02-21T14:54:18;8.15;;;2.33;;
46006;SDS011;31738;50.188;8.524;2024-02-21T14:57:10;15.68;;;2.80;;
46006;SDS011;31738;50.188;8.524;2024-02-21T14:59:37;11.07;;;2.30;;
46006;SDS011;31738;50.188;8.524;2024-02-21T15:02:02;11.00;;;2.67;;
46006;SDS011;31738;50.188;8.524;2024-02-21T15:04:51;10.75;;;2.58;;
46006;SDS011;31738;50.188;8.524;2024-02-21T15:07:22;9.38;;;2.25;;
46006;SDS011;31738;50.188;8.524;2024-02-21T15:09:55;8.80;;;2.80;;
46006;SDS011;31738;50.188;8.524;2024-02-21T15:12:25;4.97;;;1.88;;
46006;SDS011;31738;50.188;8.524;2024-02-21T15:15:52;7.53;;;2.87;;